Terminal Aerodrome Forecast
Issued by NWS Chicago, IL

Home | Current Version | Previous Version | Graphics & Text | Print | Product List | Glossary On
Versions: 1 2 3 4 5 6 7 8 9 10 11 12 13 14 15 16 17 18 19 20 21 22 23 24 25 26 27
000
FTUS43 KLOT 151732
TAFRFD
TAF
KRFD 151732Z 1518/1618 28012G18KT P6SM SCT025 OVC040
      TEMPO 1518/1520 P6SM -SN BKN025
     FM152200 23007KT P6SM SCT025 OVC040
     FM160400 20006KT P6SM SCT030 OVC080=

USA.gov is the U.S. government's official web portal to all federal, state and local government web resources and services.